createdAt,value
2022-09-26T00:01:07.302Z,5.30
2022-09-26T00:04:54.161Z,7.20
2022-09-26T00:08:56.246Z,7.40
2022-09-26T00:13:04.458Z,7.90
2022-09-26T00:17:12.828Z,7.70
2022-09-26T00:21:23.020Z,5.70
2022-09-26T00:25:31.223Z,6.60
2022-09-26T00:29:40.424Z,7.10
2022-09-26T00:33:48.677Z,8.20
2022-09-26T00:37:56.887Z,6.60
2022-09-26T00:45:46.577Z,5.90
2022-09-26T00:50:05.896Z,6.80
2022-09-26T00:54:07.031Z,6.60
2022-09-26T00:58:18.026Z,7.30
2022-09-26T01:02:18.001Z,5.40
2022-09-26T01:06:27.241Z,7.50
2022-09-26T01:10:31.219Z,10.30
2022-09-26T01:14:39.359Z,8.40
2022-09-26T01:18:32.832Z,10.40
2022-09-26T01:22:42.221Z,8.50
2022-09-26T01:27:04.715Z,9.30
2022-09-26T01:31:22.279Z,9.40
2022-09-26T01:35:24.561Z,8.80
2022-09-26T01:39:35.817Z,7.70
2022-09-26T01:44:08.099Z,5.50
2022-09-26T01:48:20.487Z,5.60
2022-09-26T01:52:40.514Z,6.10
2022-09-26T01:56:55.379Z,6.10
2022-09-26T02:01:03.573Z,6.20
2022-09-26T02:05:11.735Z,4.60
2022-09-26T02:09:22.017Z,5.50
2022-09-26T02:13:33.213Z,6.20
2022-09-26T02:17:29.647Z,8.50
2022-09-26T02:21:43.763Z,11.00
2022-09-26T02:25:51.957Z,8.50
2022-09-26T02:30:00.174Z,9.00
2022-09-26T02:33:51.427Z,11.20
2022-09-26T02:37:59.426Z,7.40
2022-09-26T02:42:29.002Z,10.00
2022-09-26T02:46:37.992Z,6.20
2022-09-26T02:50:56.140Z,8.20
2022-09-26T02:55:11.569Z,7.40
2022-09-26T02:59:37.953Z,9.30
2022-09-26T03:03:52.029Z,7.40
2022-09-26T03:07:51.227Z,4.90
2022-09-26T03:11:59.402Z,8.60
2022-09-26T03:16:01.386Z,8.40
2022-09-26T03:20:19.514Z,11.40
2022-09-26T03:24:27.643Z,11.00
2022-09-26T03:28:38.206Z,8.20
2022-09-26T03:32:46.446Z,8.10
2022-09-26T03:36:56.766Z,7.00
2022-09-26T03:41:00.163Z,7.00
2022-09-26T03:45:20.337Z,7.70
2022-09-26T03:49:36.344Z,4.60
2022-09-26T03:53:44.489Z,6.10
2022-09-26T03:57:59.777Z,6.10
2022-09-26T04:02:07.984Z,6.60
2022-09-26T04:06:18.339Z,6.40
2022-09-26T04:10:28.532Z,7.10
2022-09-26T04:14:36.649Z,8.10
2022-09-26T04:18:44.797Z,8.40
2022-09-26T04:22:52.922Z,7.30
2022-09-26T04:27:04.214Z,8.90
2022-09-26T04:31:14.485Z,5.50
2022-09-26T04:35:08.279Z,12.00
2022-09-26T04:39:05.249Z,11.60
2022-09-26T04:42:56.873Z,12.30
2022-09-26T04:46:48.863Z,12.70
2022-09-26T04:50:41.409Z,18.40
2022-09-26T04:54:53.115Z,22.20
2022-09-26T04:58:53.811Z,17.40
2022-09-26T05:03:01.991Z,12.60
2022-09-26T05:07:06.000Z,8.20
2022-09-26T05:11:14.265Z,4.80
2022-09-26T05:15:12.441Z,6.00
2022-09-26T05:19:03.402Z,6.00
2022-09-26T05:22:50.575Z,6.50
2022-09-26T05:27:01.638Z,7.10
2022-09-26T05:31:08.975Z,5.40
2022-09-26T05:35:18.260Z,5.70
2022-09-26T05:38:32.928Z,6.80
2022-09-26T05:42:31.226Z,6.60
2022-09-26T05:53:59.784Z,9.50
2022-09-26T05:58:07.937Z,5.60
2022-09-26T06:02:19.988Z,6.90
2022-09-26T06:06:20.970Z,8.80
2022-09-26T06:10:29.307Z,19.10
2022-09-26T06:14:20.136Z,8.90
2022-09-26T06:18:27.659Z,10.00
2022-09-26T06:22:35.963Z,5.90
2022-09-26T06:26:44.142Z,8.30
2022-09-26T06:30:32.345Z,8.50
2022-09-26T06:34:40.544Z,9.30
2022-09-26T06:38:48.690Z,8.60
2022-09-26T06:42:58.946Z,7.30
2022-09-26T06:46:58.169Z,8.90
2022-09-26T06:50:56.619Z,10.80
2022-09-26T06:55:03.942Z,7.80
2022-09-26T06:59:11.174Z,11.80
2022-09-26T07:03:21.773Z,7.10
2022-09-26T07:07:30.934Z,12.70
2022-09-26T07:12:10.042Z,14.30
2022-09-26T07:15:59.560Z,14.50
2022-09-26T07:20:06.243Z,15.00
2022-09-26T07:24:13.519Z,10.60
2022-09-26T07:31:42.259Z,8.80
2022-09-26T07:35:55.454Z,7.10
2022-09-26T07:40:02.535Z,7.10
2022-09-26T07:48:28.023Z,6.30
2022-09-26T07:52:21.695Z,6.80
2022-09-26T07:56:27.079Z,6.20
2022-09-26T08:00:30.403Z,7.50
2022-09-26T08:04:44.644Z,5.70
2022-09-26T08:08:47.692Z,6.40
2022-09-26T08:12:54.201Z,8.00
2022-09-26T08:17:02.384Z,7.10
2022-09-26T08:20:53.395Z,6.30
2022-09-26T08:25:01.675Z,4.30
2022-09-26T08:28:30.034Z,5.90
2022-09-26T08:31:58.318Z,7.40
2022-09-26T08:35:45.723Z,6.60
2022-09-26T08:39:51.069Z,6.50
2022-09-26T08:44:04.916Z,4.90
2022-09-26T08:48:21.540Z,6.00
2022-09-26T08:52:39.782Z,6.30
2022-09-26T08:56:41.170Z,6.40
2022-09-26T09:00:47.302Z,4.70
2022-09-26T09:07:40.901Z,5.50
2022-09-26T09:11:41.139Z,5.30
2022-09-26T09:15:34.871Z,6.60
2022-09-26T09:19:58.074Z,6.40
2022-09-26T09:24:18.283Z,6.80
2022-09-26T09:28:24.933Z,4.50
2022-09-26T09:32:35.655Z,5.80
2022-09-26T09:40:28.784Z,5.00
2022-09-26T09:44:44.310Z,5.10
2022-09-26T09:48:15.798Z,7.10
2022-09-26T09:52:25.034Z,5.30
2022-09-26T09:56:41.890Z,7.00
2022-09-26T10:00:16.165Z,5.80
2022-09-26T10:04:22.169Z,26.40
2022-09-26T10:08:09.244Z,8.00
2022-09-26T10:12:30.066Z,8.60
2022-09-26T10:16:36.926Z,5.50
2022-09-26T10:20:42.261Z,4.60
2022-09-26T10:24:49.924Z,5.40
2022-09-26T10:28:57.155Z,6.00
2022-09-26T10:32:25.721Z,6.20
2022-09-26T10:36:52.361Z,6.40
2022-09-26T10:41:06.718Z,6.60
2022-09-26T10:45:22.091Z,4.20
2022-09-26T10:49:39.431Z,5.00
2022-09-26T10:53:49.307Z,7.80
2022-09-26T10:58:00.079Z,6.70
2022-09-26T11:01:59.694Z,6.80
2022-09-26T11:06:21.868Z,7.60
2022-09-26T11:10:17.705Z,4.80
2022-09-26T11:14:20.132Z,5.70
2022-09-26T11:18:44.826Z,6.00
2022-09-26T11:22:49.607Z,7.00
2022-09-26T11:27:03.056Z,7.10
2022-09-26T11:30:25.051Z,6.40
2022-09-26T11:34:16.241Z,4.10
2022-09-26T11:38:13.150Z,5.10
2022-09-26T11:42:38.182Z,5.50
2022-09-26T11:46:29.018Z,7.90
2022-09-26T11:50:58.785Z,13.70
2022-09-26T11:55:16.790Z,12.40
2022-09-26T11:58:40.095Z,5.20
2022-09-26T12:03:00.210Z,6.70
2022-09-26T12:06:27.119Z,6.90
2022-09-26T12:10:20.507Z,7.70
2022-09-26T12:14:34.473Z,8.70
2022-09-26T12:18:53.135Z,7.60
2022-09-26T12:22:49.058Z,8.30
2022-09-26T12:26:30.257Z,8.90
2022-09-26T12:30:35.894Z,8.40
2022-09-26T12:34:44.792Z,8.20
2022-09-26T12:38:38.605Z,8.50
2022-09-26T12:42:54.488Z,5.90
2022-09-26T12:46:58.810Z,6.80
2022-09-26T12:51:25.291Z,9.00
2022-09-26T12:55:54.686Z,8.80
2022-09-26T13:00:12.139Z,7.20
2022-09-26T13:04:26.510Z,5.30
2022-09-26T13:08:56.113Z,12.50
2022-09-26T13:12:42.230Z,8.90
2022-09-26T13:16:52.094Z,8.20
2022-09-26T13:21:00.209Z,8.00
2022-09-26T13:24:21.382Z,5.70
2022-09-26T13:29:12.807Z,6.70
2022-09-26T13:33:43.550Z,7.90
2022-09-26T13:37:51.790Z,8.70
2022-09-26T13:42:11.582Z,7.40
2022-09-26T13:46:34.771Z,4.90
2022-09-26T13:50:24.528Z,6.40
2022-09-26T13:54:29.683Z,6.60
2022-09-26T13:58:37.920Z,7.50
2022-09-26T14:03:04.902Z,8.40
2022-09-26T14:07:13.237Z,6.00
2022-09-26T14:11:21.402Z,6.90
2022-09-26T14:15:47.911Z,7.80
2022-09-26T14:19:37.358Z,10.20
2022-09-26T14:23:20.955Z,8.80
2022-09-26T14:27:18.991Z,5.40
2022-09-26T14:31:08.524Z,7.30
2022-09-26T14:34:45.887Z,7.60
2022-09-26T14:38:33.984Z,9.50
2022-09-26T14:42:35.892Z,9.90
2022-09-26T14:46:43.667Z,7.80
2022-09-26T14:50:24.410Z,9.30
2022-09-26T14:55:00.204Z,11.40
2022-09-26T14:58:31.284Z,11.10
2022-09-26T15:02:47.073Z,11.00
2022-09-26T15:06:13.282Z,16.00
2022-09-26T15:10:04.518Z,24.30
2022-09-26T15:13:38.203Z,17.60
2022-09-26T15:17:32.660Z,12.70
2022-09-26T15:21:34.352Z,12.90
2022-09-26T15:25:48.444Z,8.10
2022-09-26T15:30:00.118Z,10.50
2022-09-26T15:33:46.827Z,9.80
2022-09-26T15:36:57.930Z,10.70
2022-09-26T15:44:18.454Z,11.40
2022-09-26T15:48:30.958Z,11.50
2022-09-26T15:52:39.186Z,10.00
2022-09-26T15:56:37.032Z,13.20
2022-09-26T16:00:26.188Z,13.20
2022-09-26T16:04:53.958Z,15.00
2022-09-26T16:08:45.762Z,10.80
2022-09-26T16:12:55.994Z,14.70
2022-09-26T16:16:56.154Z,16.10
2022-09-26T16:21:11.319Z,22.80
2022-09-26T16:25:22.837Z,34.60
2022-09-26T16:29:22.921Z,17.80
2022-09-26T16:33:24.819Z,15.80
2022-09-26T16:37:25.700Z,9.40
2022-09-26T16:42:00.012Z,13.80
2022-09-26T16:45:48.003Z,13.90
2022-09-26T16:50:02.282Z,9.10
2022-09-26T16:52:58.861Z,10.60
2022-09-26T16:55:38.878Z,12.00
2022-09-26T16:58:37.441Z,13.00
2022-09-26T17:02:38.503Z,12.50
2022-09-26T17:06:31.041Z,23.80
2022-09-26T17:10:01.227Z,13.50
2022-09-26T17:13:39.295Z,13.70
2022-09-26T17:17:36.419Z,11.90
2022-09-26T17:21:30.072Z,14.20
2022-09-26T17:25:09.106Z,15.20
2022-09-26T17:28:59.498Z,26.40
2022-09-26T17:32:50.291Z,29.60
2022-09-26T17:35:49.075Z,16.90
2022-09-26T17:39:16.013Z,17.70
2022-09-26T17:42:28.379Z,17.00
2022-09-26T17:45:24.801Z,16.40
2022-09-26T17:48:13.827Z,11.70
2022-09-26T17:51:02.289Z,16.70
2022-09-26T17:54:23.907Z,22.60
2022-09-26T17:57:41.588Z,15.30
2022-09-26T18:00:16.169Z,17.40
2022-09-26T18:04:17.104Z,16.90
2022-09-26T18:07:22.578Z,10.90
2022-09-26T18:11:15.041Z,12.60
2022-09-26T18:14:38.701Z,20.80
2022-09-26T18:17:49.849Z,18.20
2022-09-26T18:20:26.058Z,18.90
2022-09-26T18:23:25.586Z,12.40
2022-09-26T18:27:07.302Z,16.00
2022-09-26T18:30:23.879Z,16.00
2022-09-26T18:34:17.170Z,15.80
2022-09-26T18:37:24.186Z,15.10
2022-09-26T18:43:05.074Z,18.10
2022-09-26T18:45:58.431Z,16.50
2022-09-26T18:49:06.481Z,18.60
2022-09-26T18:52:37.645Z,18.30
2022-09-26T18:55:50.534Z,19.20
2022-09-26T18:59:26.841Z,21.30
2022-09-26T19:02:41.392Z,20.90
2022-09-26T19:05:13.918Z,16.50
2022-09-26T19:07:47.798Z,18.30
2022-09-26T19:11:12.059Z,18.30
2022-09-26T19:14:45.264Z,18.20
2022-09-26T19:18:31.230Z,17.10
2022-09-26T19:22:31.922Z,24.00
2022-09-26T19:25:59.204Z,18.70
2022-09-26T19:29:00.817Z,86.30
2022-09-26T19:31:55.183Z,81.40
2022-09-26T19:35:07.107Z,53.90
2022-09-26T19:39:10.516Z,86.00
2022-09-26T19:42:11.532Z,31.20
2022-09-26T19:44:53.595Z,21.00
2022-09-26T19:48:00.200Z,19.90
2022-09-26T19:51:43.139Z,15.80
2022-09-26T19:55:05.589Z,21.40
2022-09-26T19:58:18.945Z,15.40
2022-09-26T20:01:26.102Z,13.80
2022-09-26T20:04:44.989Z,10.90
2022-09-26T20:08:13.166Z,10.30
2022-09-26T20:11:54.035Z,11.60
2022-09-26T20:14:51.985Z,31.00
2022-09-26T20:17:43.232Z,19.40
2022-09-26T20:21:09.409Z,14.20
2022-09-26T20:23:46.246Z,10.70
2022-09-26T20:26:54.227Z,10.10
2022-09-26T20:30:35.204Z,11.30
2022-09-26T20:33:36.807Z,12.60
2022-09-26T20:36:47.593Z,15.70
2022-09-26T20:39:47.360Z,15.40
2022-09-26T20:43:02.126Z,11.50
2022-09-26T20:46:47.407Z,13.10
2022-09-26T20:49:29.850Z,12.80
2022-09-26T20:52:30.633Z,13.50
2022-09-26T20:55:43.832Z,13.70
2022-09-26T20:58:53.325Z,14.00
2022-09-26T21:01:46.372Z,10.80
2022-09-26T21:05:31.686Z,11.90
2022-09-26T21:08:32.212Z,13.30
2022-09-26T21:11:28.613Z,13.40
2022-09-26T21:14:17.188Z,14.70
2022-09-26T21:17:27.624Z,16.20
2022-09-26T21:20:17.951Z,10.70
2022-09-26T21:23:13.546Z,12.10
2022-09-26T21:26:31.792Z,15.40
2022-09-26T21:29:17.918Z,16.60
2022-09-26T21:32:05.352Z,17.00
2022-09-26T21:34:42.825Z,17.70
2022-09-26T21:37:13.038Z,13.20
2022-09-26T21:39:50.966Z,17.50
2022-09-26T21:43:02.189Z,17.80
2022-09-26T21:46:49.031Z,14.90
2022-09-26T21:50:58.722Z,18.90
2022-09-26T21:55:07.005Z,17.20
2022-09-26T21:59:15.359Z,12.20
2022-09-26T22:03:17.181Z,14.10
2022-09-26T22:07:17.220Z,14.60
2022-09-26T22:11:12.227Z,14.30
2022-09-26T22:15:20.409Z,14.70
2022-09-26T22:19:28.562Z,11.70
2022-09-26T22:23:36.751Z,12.30
2022-09-26T22:27:31.037Z,11.90
2022-09-26T22:30:59.843Z,11.70
2022-09-26T22:34:22.869Z,12.50
2022-09-26T22:42:03.157Z,9.50
2022-09-26T22:46:11.566Z,10.50
2022-09-26T22:50:19.808Z,11.80
2022-09-26T22:54:27.977Z,12.00
2022-09-26T22:58:36.340Z,8.50
2022-09-26T23:02:43.263Z,8.90
2022-09-26T23:06:51.506Z,16.30
2022-09-26T23:10:49.784Z,18.00
2022-09-26T23:14:57.997Z,17.70
2022-09-26T23:18:58.937Z,11.60
2022-09-26T23:23:07.075Z,12.60
2022-09-26T23:27:16.381Z,13.80
2022-09-26T23:31:26.800Z,14.70
2022-09-26T23:35:32.510Z,14.80
2022-09-26T23:39:34.645Z,11.20
2022-09-26T23:43:36.516Z,12.10
2022-09-26T23:47:44.751Z,13.70
2022-09-26T23:51:52.933Z,14.30
2022-09-26T23:55:33.799Z,14.40
2022-09-26T23:59:43.945Z,11.40
